Rapid City, SD (57702)

11:05 AM MST on February 08, 2016 (GMT -0700)
Marco Heights | | Change Station
CLOSE
Current Station
Personal Weather Station
Location: Rapid City, SD
Elevation: 3491 ft
Nearby Weather Stations

Elev 3491 ft 44.09 °N, 103.30 °W | Updated 4 minutes ago

Mostly Cloudy
Mostly Cloudy
39.7 °F
Feels Like 34 °F
N
8.3
Wind Variable Wind from NNW

Today
High -- | Low -- °F
--% Chance of Precip.
Yesterday
High -- | Low -- °F
Precip. -- in
Pressure 30.40 in
Visibility 10.0 miles
Clouds Scattered Clouds 7000 ft
Windchill 34 °F
Dew Point 4 °F
Humidity 22%
Rainfall 0.00 in
Snow Depth Not available.
7:02 AM 5:12 PM
New Moon, 0% visible
METAR KRAP 081752Z 33028G37KT 10SM SCT070 04/M15 A3032 RMK AO2 PK WND 32040/1724 SLP293 T00441150 10044 21022 58004
Pressure 30.40 in
Visibility 10.0 miles
Clouds Scattered Clouds 7000 ft
Windchill 34 °F
Dew Point 4 °F
Humidity 22%
Rainfall 0.00 in
Snow Depth Not available.
7:02 AM 5:12 PM
New Moon, 0% visible
METAR KRAP 081752Z 33028G37KT 10SM SCT070 04/M15 A3032 RMK AO2 PK WND 32040/1724 SLP293 T00441150 10044 21022 58004

10-Day Weather Forecast

Almanac

Astronomy

Feb. 08, 2016 Rise Set
Actual Time
Civil Twilight
Nautical Twilight
Astronomical Twilight
Moon
Length of Visible Light
Length of Day
Tomorrow will be .
, % of the Moon is Illuminated

Today's Extremes

State Highs State Lows

Community

WunderPhotos

Upload Photos

1,891,475 photos uploaded!

WunderBlog® & News

Nearby

Air Quality

  Air Quality AQ Index Pollutant
Not available.

Snow Depth

Station Depth Elevation

Earthquake Activity

City Distance Mag. Time & Date
Minimum magnitude displayed is 2.5.

Coastal Water Temperatures

Place Temperature

Stations

Nearby Weather Stations

Station Location Temp. Windchill Dew Point Humidity Wind Precip. Elev Updated Type
                   

Watches & Warnings

There are currently no watches in effect.